createdAt,value
2023-05-03T00:02:22.152Z,96101.13
2023-05-03T00:05:26.126Z,96095.44
2023-05-03T00:08:28.301Z,96101.22
2023-05-03T00:11:32.695Z,96100.41
2023-05-03T00:14:35.636Z,96095.00
2023-05-03T00:17:39.023Z,96092.72
2023-05-03T00:20:40.802Z,96089.53
2023-05-03T00:23:42.988Z,96087.16
2023-05-03T00:26:44.847Z,96086.91
2023-05-03T00:29:46.764Z,96084.56
2023-05-03T00:32:52.461Z,96083.16
2023-05-03T00:35:54.951Z,96081.28
2023-05-03T00:38:57.502Z,96079.41
2023-05-03T00:41:59.813Z,96083.66
2023-05-03T00:45:02.940Z,96078.63
2023-05-03T00:48:06.550Z,96073.28
2023-05-03T00:51:08.981Z,96074.00
2023-05-03T00:54:11.471Z,96075.06
2023-05-03T00:57:16.041Z,96066.56
2023-05-03T01:00:18.492Z,96063.16
2023-05-03T01:03:24.356Z,96072.00
2023-05-03T01:06:36.252Z,96067.41
2023-05-03T01:09:46.331Z,96073.94
2023-05-03T01:12:55.916Z,96073.06
2023-05-03T01:16:04.714Z,96070.78
2023-05-03T01:19:25.573Z,96083.16
2023-05-03T01:22:35.420Z,96079.22
2023-05-03T01:25:38.558Z,96073.00
2023-05-03T01:28:40.599Z,96082.69
2023-05-03T01:31:53.418Z,96078.72
2023-05-03T01:35:04.162Z,96072.91
2023-05-03T01:38:09.859Z,96074.72
2023-05-03T01:41:18.512Z,96073.53
2023-05-03T01:44:23.128Z,96065.47
2023-05-03T01:47:25.022Z,96068.50
2023-05-03T01:50:27.410Z,96067.75
2023-05-03T01:53:29.624Z,96066.00
2023-05-03T01:56:35.456Z,96066.69
2023-05-03T01:59:37.206Z,96070.22
2023-05-03T02:02:39.003Z,96070.31
2023-05-03T02:05:41.061Z,96065.69
2023-05-03T02:08:45.163Z,96067.34
2023-05-03T02:11:48.520Z,96065.38
2023-05-03T02:14:50.502Z,96065.81
2023-05-03T02:17:52.490Z,96068.84
2023-05-03T02:20:55.409Z,96067.00
2023-05-03T02:23:57.408Z,96069.00
2023-05-03T02:27:02.797Z,96077.47
2023-05-03T02:30:05.823Z,96066.63
2023-05-03T02:33:08.373Z,96069.34
2023-05-03T02:36:12.746Z,96066.25
2023-05-03T02:39:15.233Z,96066.63
2023-05-03T02:42:18.450Z,96069.69
2023-05-03T02:45:21.267Z,96070.03
2023-05-03T02:48:23.331Z,96066.44
2023-05-03T02:51:25.334Z,96065.72
2023-05-03T02:54:29.299Z,96060.75
2023-05-03T02:57:32.865Z,96062.31
2023-05-03T03:00:35.353Z,96061.50
2023-05-03T03:03:40.280Z,96067.91
2023-05-03T03:06:42.137Z,96066.47
2023-05-03T03:09:44.002Z,96063.78
2023-05-03T03:12:49.512Z,96071.13
2023-05-03T03:15:52.225Z,96070.69
2023-05-03T03:18:54.987Z,96068.75
2023-05-03T03:21:56.779Z,96069.13
2023-05-03T03:24:58.846Z,96067.03
2023-05-03T03:28:03.055Z,96069.31
2023-05-03T03:31:05.201Z,96066.31
2023-05-03T03:34:08.036Z,96063.66
2023-05-03T03:37:09.759Z,96074.44
2023-05-03T03:40:15.601Z,96076.81
2023-05-03T03:43:20.403Z,96080.69
2023-05-03T03:46:22.993Z,96084.56
2023-05-03T03:49:24.904Z,96074.78
2023-05-03T03:52:26.629Z,96079.84
2023-05-03T03:55:28.908Z,96085.09
2023-05-03T03:58:32.181Z,96086.66
2023-05-03T04:01:34.487Z,96089.50
2023-05-03T04:04:37.701Z,96086.56
2023-05-03T04:07:39.701Z,96096.16
2023-05-03T04:10:41.713Z,96095.31
2023-05-03T04:13:48.576Z,96090.88
2023-05-03T04:16:50.671Z,96100.88
2023-05-03T04:19:52.774Z,96103.63
2023-05-03T04:22:55.381Z,96104.66
2023-05-03T04:25:57.499Z,96109.03
2023-05-03T04:29:00.735Z,96109.47
2023-05-03T04:32:03.601Z,96112.03
2023-05-03T04:35:06.229Z,96112.88
2023-05-03T04:38:08.302Z,96118.53
2023-05-03T04:41:16.126Z,96119.44
2023-05-03T04:44:19.692Z,96117.56
2023-05-03T04:47:21.773Z,96126.13
2023-05-03T04:50:24.764Z,96122.03
2023-05-03T04:53:27.220Z,96119.06
2023-05-03T04:56:30.265Z,96131.91
2023-05-03T04:59:36.300Z,96140.09
2023-05-03T05:02:40.013Z,96140.94
2023-05-03T05:05:41.867Z,96135.63
2023-05-03T05:08:43.728Z,96142.16
2023-05-03T05:11:45.817Z,96135.91
2023-05-03T05:14:49.009Z,96139.44
2023-05-03T05:17:53.479Z,96141.81
2023-05-03T05:20:57.973Z,96139.88
2023-05-03T05:24:00.160Z,96145.28
2023-05-03T05:27:02.043Z,96139.97
2023-05-03T05:30:06.668Z,96136.44
2023-05-03T05:33:11.319Z,96140.78
2023-05-03T05:36:13.800Z,96137.44
2023-05-03T05:39:18.128Z,96140.44
2023-05-03T05:42:19.966Z,96149.84
2023-05-03T05:45:29.106Z,96148.34
2023-05-03T05:48:31.429Z,96154.53
2023-05-03T05:51:33.245Z,96150.94
2023-05-03T05:54:35.283Z,96157.06
2023-05-03T05:57:39.746Z,96157.59
2023-05-03T06:00:42.927Z,96164.50
2023-05-03T06:03:44.753Z,96163.66
2023-05-03T06:06:49.264Z,96150.13
2023-05-03T06:09:54.064Z,96163.19
2023-05-03T06:12:55.923Z,96168.72
2023-05-03T06:15:59.136Z,96171.09
2023-05-03T06:19:00.976Z,96166.97
2023-05-03T06:22:03.039Z,96168.59
2023-05-03T06:25:05.947Z,96169.97
2023-05-03T06:28:07.915Z,96173.72
2023-05-03T06:31:11.293Z,96170.31
2023-05-03T06:34:15.368Z,96182.19
2023-05-03T06:37:17.531Z,96182.78
2023-05-03T06:40:19.416Z,96173.16
2023-05-03T06:43:23.620Z,96189.19
2023-05-03T06:46:28.491Z,96183.00
2023-05-03T06:49:30.806Z,96179.97
2023-05-03T06:52:34.964Z,96184.38
2023-05-03T06:55:37.042Z,96183.72
2023-05-03T06:58:38.912Z,96193.81
2023-05-03T07:01:42.491Z,96189.69
2023-05-03T07:04:45.255Z,96190.56
2023-05-03T07:07:48.602Z,96189.22
2023-05-03T07:10:50.706Z,96197.09
2023-05-03T07:13:53.139Z,96185.72
2023-05-03T07:16:59.990Z,96186.97
2023-05-03T07:20:03.241Z,96187.31
2023-05-03T07:23:05.433Z,96186.00
2023-05-03T07:26:07.824Z,96189.19
2023-05-03T07:29:12.390Z,96181.69
2023-05-03T07:32:16.111Z,96184.91
2023-05-03T07:35:18.181Z,96187.69
2023-05-03T07:38:22.884Z,96193.34
2023-05-03T07:41:25.002Z,96189.03
2023-05-03T07:44:27.101Z,96192.16
2023-05-03T07:47:30.313Z,96185.44
2023-05-03T07:50:32.966Z,96180.50
2023-05-03T07:53:35.356Z,96188.50
2023-05-03T07:56:38.478Z,96183.53
2023-05-03T07:59:40.584Z,96187.09
2023-05-03T08:02:44.171Z,96187.47
2023-05-03T08:05:46.238Z,96185.78
2023-05-03T08:08:48.080Z,96191.56
2023-05-03T08:11:49.910Z,96193.78
2023-05-03T08:14:53.140Z,96193.22
2023-05-03T08:17:57.859Z,96189.44
2023-05-03T08:20:59.882Z,96191.50
2023-05-03T08:24:02.045Z,96193.50
2023-05-03T08:27:05.349Z,96194.31
2023-05-03T08:30:08.339Z,96202.50
2023-05-03T08:33:11.520Z,96205.63
2023-05-03T08:36:13.276Z,96206.41
2023-05-03T08:39:16.450Z,96210.72
2023-05-03T08:42:19.140Z,96203.25
2023-05-03T08:45:20.944Z,96199.44
2023-05-03T08:48:25.092Z,96202.97
2023-05-03T08:51:26.948Z,96203.84
2023-05-03T08:54:30.504Z,96209.97
2023-05-03T08:57:34.115Z,96215.06
2023-05-03T09:00:38.330Z,96215.09
2023-05-03T09:03:49.763Z,96212.84
2023-05-03T09:07:07.464Z,96217.13
2023-05-03T09:10:26.125Z,96221.78
2023-05-03T09:13:31.513Z,96219.81
2023-05-03T09:16:33.362Z,96222.59
2023-05-03T09:19:49.649Z,96214.13
2023-05-03T09:22:51.839Z,96209.16
2023-05-03T09:25:55.098Z,96215.81
2023-05-03T09:28:59.377Z,96217.00
2023-05-03T09:32:03.542Z,96217.03
2023-05-03T09:35:16.340Z,96207.81
2023-05-03T09:38:27.123Z,96205.84
2023-05-03T09:41:30.203Z,96210.53
2023-05-03T09:44:42.347Z,96203.59
2023-05-03T09:47:50.214Z,96204.03
2023-05-03T09:50:54.687Z,96202.06
2023-05-03T09:53:56.710Z,96205.56
2023-05-03T09:56:59.089Z,96199.78
2023-05-03T10:00:00.936Z,96199.78
2023-05-03T10:03:07.676Z,96194.03
2023-05-03T10:06:23.001Z,96206.84
2023-05-03T10:09:31.923Z,96196.34
2023-05-03T10:12:34.892Z,96202.16
2023-05-03T10:15:38.192Z,96203.34
2023-05-03T10:18:47.897Z,96194.38
2023-05-03T10:21:58.041Z,96186.22
2023-05-03T10:25:11.175Z,96186.63
2023-05-03T10:28:14.556Z,96181.97
2023-05-03T10:31:48.280Z,96181.19
2023-05-03T10:34:57.024Z,96181.59
2023-05-03T10:38:17.057Z,96185.06
2023-05-03T10:41:24.696Z,96180.03
2023-05-03T10:44:27.796Z,96180.78
2023-05-03T10:47:30.630Z,96166.91
2023-05-03T10:50:32.462Z,96175.41
2023-05-03T10:53:41.390Z,96175.41
2023-05-03T10:56:54.576Z,96172.38
2023-05-03T10:59:56.828Z,96174.75
2023-05-03T11:03:36.535Z,96175.22
2023-05-03T11:06:43.524Z,96174.16
2023-05-03T11:09:47.715Z,96172.25
2023-05-03T11:12:51.890Z,96174.25
2023-05-03T11:15:55.055Z,96171.16
2023-05-03T11:18:57.378Z,96167.22
2023-05-03T11:22:03.075Z,96171.47
2023-05-03T11:25:11.122Z,96172.25
2023-05-03T11:28:13.138Z,96166.44
2023-05-03T11:31:14.891Z,96164.91
2023-05-03T11:34:16.752Z,96168.06
2023-05-03T11:37:18.893Z,96171.50
2023-05-03T11:40:25.049Z,96173.03
2023-05-03T11:43:28.134Z,96172.69
2023-05-03T11:46:34.489Z,96162.63
2023-05-03T11:49:36.411Z,96160.28
2023-05-03T11:52:39.286Z,96166.91
2023-05-03T11:55:45.246Z,96170.38
2023-05-03T11:58:51.462Z,96166.50
2023-05-03T12:01:54.030Z,96158.28
2023-05-03T12:04:58.086Z,96165.28
2023-05-03T12:08:01.679Z,96157.13
2023-05-03T12:11:07.091Z,96157.50
2023-05-03T12:14:10.596Z,96153.22
2023-05-03T12:17:15.521Z,96148.91
2023-05-03T12:23:26.542Z,96152.78
2023-05-03T12:26:30.142Z,96142.25
2023-05-03T12:29:35.575Z,96146.13
2023-05-03T12:32:39.331Z,96137.59
2023-05-03T12:35:41.735Z,96137.59
2023-05-03T12:38:45.232Z,96136.03
2023-05-03T12:44:58.320Z,96128.97
2023-05-03T12:48:00.470Z,96126.59
2023-05-03T12:51:18.654Z,96122.56
2023-05-03T12:54:26.763Z,96118.56
2023-05-03T12:57:36.673Z,96125.31
2023-05-03T13:00:46.613Z,96119.91
2023-05-03T13:07:13.156Z,96111.31
2023-05-03T13:13:22.009Z,96091.34
2023-05-03T13:16:24.235Z,96100.56
2023-05-03T13:19:26.050Z,96096.25
2023-05-03T13:22:28.087Z,96093.13
2023-05-03T13:25:33.080Z,96097.81
2023-05-03T13:28:36.475Z,96081.34
2023-05-03T13:31:40.471Z,96079.78
2023-05-03T13:34:42.272Z,96071.22
2023-05-03T13:37:44.060Z,96082.59
2023-05-03T13:40:46.690Z,96072.91
2023-05-03T13:43:50.013Z,96076.34
2023-05-03T13:46:52.124Z,96072.75
2023-05-03T13:49:55.523Z,96071.88
2023-05-03T13:52:57.478Z,96069.44
2023-05-03T13:56:00.328Z,96066.19
2023-05-03T13:59:03.645Z,96070.88
2023-05-03T14:02:08.539Z,96064.31
2023-05-03T14:05:10.647Z,96069.22
2023-05-03T14:08:12.389Z,96070.53
2023-05-03T14:11:15.214Z,96062.50
2023-05-03T14:14:18.614Z,96070.72
2023-05-03T14:17:21.206Z,96064.97
2023-05-03T14:20:30.610Z,96069.59
2023-05-03T14:23:33.465Z,96070.84
2023-05-03T14:26:36.033Z,96073.63
2023-05-03T14:29:39.184Z,96069.38
2023-05-03T14:32:43.159Z,96076.69
2023-05-03T14:35:44.957Z,96062.72
2023-05-03T14:38:46.790Z,96060.34
2023-05-03T14:41:51.578Z,96057.28
2023-05-03T14:44:56.212Z,96058.00
2023-05-03T14:47:58.070Z,96057.59
2023-05-03T14:51:01.222Z,96055.88
2023-05-03T14:54:03.298Z,96061.47
2023-05-03T14:57:05.616Z,96057.09
2023-05-03T15:00:12.433Z,96055.88
2023-05-03T15:03:15.290Z,96062.75
2023-05-03T15:06:23.317Z,96060.94
2023-05-03T15:09:25.194Z,96074.66
2023-05-03T15:12:29.582Z,96066.34
2023-05-03T15:15:35.284Z,96067.19
2023-05-03T15:18:37.278Z,96071.09
2023-05-03T15:21:46.797Z,96071.59
2023-05-03T15:24:48.881Z,96070.47
2023-05-03T15:27:54.410Z,96068.13
2023-05-03T15:30:59.193Z,96069.69
2023-05-03T15:34:02.843Z,96068.94
2023-05-03T15:37:05.084Z,96071.69
2023-05-03T15:40:09.322Z,96069.69
2023-05-03T15:43:11.369Z,96063.44
2023-05-03T15:46:16.541Z,96065.41
2023-05-03T15:49:19.803Z,96068.94
2023-05-03T15:52:24.007Z,96066.63
2023-05-03T15:55:27.005Z,96072.19
2023-05-03T15:58:29.877Z,96076.63
2023-05-03T16:01:35.627Z,96081.34
2023-05-03T16:04:37.738Z,96077.03
2023-05-03T16:07:39.821Z,96077.00
2023-05-03T16:10:41.732Z,96076.63
2023-05-03T16:13:43.712Z,96080.13
2023-05-03T16:16:48.443Z,96079.41
2023-05-03T16:19:51.479Z,96078.25
2023-05-03T16:22:53.757Z,96076.31
2023-05-03T16:25:56.923Z,96074.78
2023-05-03T16:28:59.029Z,96075.25
2023-05-03T16:32:04.943Z,96071.34
2023-05-03T16:35:07.537Z,96059.31
2023-05-03T16:38:09.371Z,96058.59
2023-05-03T16:41:11.151Z,96053.50
2023-05-03T16:44:13.186Z,96046.13
2023-05-03T16:47:16.379Z,96048.06
2023-05-03T16:50:20.098Z,96044.94
2023-05-03T16:53:22.268Z,96052.25
2023-05-03T16:56:24.629Z,96053.81
2023-05-03T16:59:27.110Z,96054.44
2023-05-03T17:02:30.306Z,96060.81
2023-05-03T17:05:32.467Z,96060.59
2023-05-03T17:08:35.490Z,96055.44
2023-05-03T17:11:37.589Z,96069.22
2023-05-03T17:14:40.079Z,96065.94
2023-05-03T17:17:45.692Z,96069.25
2023-05-03T17:20:47.808Z,96067.13
2023-05-03T17:23:49.661Z,96066.16
2023-05-03T17:26:51.747Z,96062.41
2023-05-03T17:29:53.916Z,96065.44
2023-05-03T17:32:58.864Z,96070.22
2023-05-03T17:36:02.245Z,96074.09
2023-05-03T17:39:04.415Z,96077.25
2023-05-03T17:42:06.231Z,96078.69
2023-05-03T17:45:11.075Z,96074.75
2023-05-03T17:48:14.705Z,96074.22
2023-05-03T17:51:16.774Z,96073.59
2023-05-03T17:54:21.185Z,96077.59
2023-05-03T17:57:23.696Z,96071.81
2023-05-03T18:00:26.402Z,96071.88
2023-05-03T18:03:29.925Z,96083.97
2023-05-03T18:06:34.786Z,96083.28
2023-05-03T18:09:38.442Z,96081.38
2023-05-03T18:12:43.030Z,96088.78
2023-05-03T18:15:46.865Z,96087.25
2023-05-03T18:18:51.029Z,96084.16
2023-05-03T18:21:53.475Z,96088.03
2023-05-03T18:24:55.912Z,96089.22
2023-05-03T18:27:58.023Z,96092.72
2023-05-03T18:31:00.027Z,96103.25
2023-05-03T18:34:04.096Z,96102.84
2023-05-03T18:37:06.729Z,96107.91
2023-05-03T18:40:11.106Z,96110.22
2023-05-03T18:43:15.717Z,96112.94
2023-05-03T18:46:18.742Z,96103.22
2023-05-03T18:49:24.265Z,96105.16
2023-05-03T18:52:26.646Z,96103.59
2023-05-03T18:55:29.530Z,96110.19
2023-05-03T18:58:33.505Z,96105.91
2023-05-03T19:01:35.804Z,96110.91
2023-05-03T19:04:44.402Z,96110.53
2023-05-03T19:07:48.287Z,96112.81
2023-05-03T19:10:50.537Z,96105.00
2023-05-03T19:13:54.240Z,96106.97
2023-05-03T19:16:57.887Z,96116.25
2023-05-03T19:20:04.059Z,96109.69
2023-05-03T19:23:07.771Z,96108.91
2023-05-03T19:26:10.836Z,96111.59
2023-05-03T19:29:12.732Z,96117.00
2023-05-03T19:32:18.863Z,96114.19
2023-05-03T19:35:22.726Z,96121.22
2023-05-03T19:38:35.325Z,96118.47
2023-05-03T19:41:38.475Z,96129.28
2023-05-03T19:44:41.715Z,96113.91
2023-05-03T19:47:44.300Z,96113.44
2023-05-03T19:50:48.167Z,96120.41
2023-05-03T19:53:51.720Z,96124.91
2023-05-03T19:56:54.000Z,96115.78
2023-05-03T19:59:56.505Z,96115.81
2023-05-03T20:03:00.456Z,96125.72
2023-05-03T20:06:03.951Z,96131.13
2023-05-03T20:09:08.061Z,96118.66
2023-05-03T20:12:12.161Z,96121.13
2023-05-03T20:15:14.128Z,96116.28
2023-05-03T20:18:16.961Z,96119.66
2023-05-03T20:21:20.653Z,96120.88
2023-05-03T20:24:23.949Z,96115.88
2023-05-03T20:27:26.175Z,96111.88
2023-05-03T20:30:33.476Z,96103.22
2023-05-03T20:33:36.383Z,96116.78
2023-05-03T20:36:39.530Z,96111.44
2023-05-03T20:39:44.333Z,96111.25
2023-05-03T20:42:46.709Z,96116.09
2023-05-03T20:45:48.582Z,96115.34
2023-05-03T20:48:51.604Z,96119.00
2023-05-03T20:51:55.517Z,96114.16
2023-05-03T20:54:58.351Z,96109.88
2023-05-03T20:58:05.277Z,96116.41
2023-05-03T21:01:08.860Z,96104.88
2023-05-03T21:04:10.696Z,96106.22
2023-05-03T21:07:16.681Z,96104.97
2023-05-03T21:10:19.758Z,96102.16
2023-05-03T21:13:24.346Z,96099.09
2023-05-03T21:16:26.272Z,96095.59
2023-05-03T21:19:28.029Z,96097.16
2023-05-03T21:22:31.215Z,96102.34
2023-05-03T21:25:33.258Z,96104.50
2023-05-03T21:28:35.166Z,96093.00
2023-05-03T21:31:37.220Z,96092.03
2023-05-03T21:34:39.210Z,96091.19
2023-05-03T21:37:43.448Z,96093.75
2023-05-03T21:40:45.620Z,96094.34
2023-05-03T21:43:49.460Z,96096.47
2023-05-03T21:46:51.848Z,96088.84
2023-05-03T21:49:53.910Z,96088.13
2023-05-03T21:52:57.806Z,96086.41
2023-05-03T21:55:59.785Z,96091.06
2023-05-03T21:59:01.983Z,96092.16
2023-05-03T22:02:04.301Z,96091.59
2023-05-03T22:05:07.522Z,96083.53
2023-05-03T22:08:11.133Z,96091.59
2023-05-03T22:11:13.141Z,96091.22
2023-05-03T22:14:15.606Z,96088.06
2023-05-03T22:17:17.947Z,96086.97
2023-05-03T22:20:21.345Z,96095.81
2023-05-03T22:23:25.275Z,96090.03
2023-05-03T22:26:27.830Z,96088.50
2023-05-03T22:29:29.638Z,96084.72
2023-05-03T22:32:34.391Z,96090.19
2023-05-03T22:35:38.028Z,96083.50
2023-05-03T22:38:42.852Z,96083.91
2023-05-03T22:41:45.402Z,96081.22
2023-05-03T22:44:47.267Z,96083.50
2023-05-03T22:47:49.574Z,96074.72
2023-05-03T22:50:52.426Z,96078.78
2023-05-03T22:53:55.927Z,96079.31
2023-05-03T22:56:58.005Z,96081.50
2023-05-03T23:00:00.981Z,96063.97
2023-05-03T23:03:02.831Z,96076.47
2023-05-03T23:06:05.572Z,96068.09
2023-05-03T23:09:11.171Z,96062.31
2023-05-03T23:12:13.215Z,96056.91
2023-05-03T23:15:15.077Z,96061.06
2023-05-03T23:18:18.952Z,96058.84
2023-05-03T23:21:21.033Z,96058.00
2023-05-03T23:24:29.047Z,96056.91
2023-05-03T23:27:31.004Z,96054.13
2023-05-03T23:30:34.234Z,96056.91
2023-05-03T23:33:36.642Z,96060.22
2023-05-03T23:36:38.721Z,96058.00
2023-05-03T23:39:44.855Z,96053.69
2023-05-03T23:42:49.206Z,96055.22
2023-05-03T23:45:51.621Z,96050.69
2023-05-03T23:48:57.717Z,96044.19
2023-05-03T23:52:00.384Z,96045.78
2023-05-03T23:55:06.003Z,96049.72
2023-05-03T23:58:08.787Z,96048.19
